sensor_id;sensor_type;location;lat;lon;timestamp;pressure;altitude;pressure_sealevel;temperature;humidity
49627;BME280;35527;54.616;39.786;2022-09-02T00:02:04;99490.34;;;6.41;100.00
49627;BME280;35527;54.616;39.786;2022-09-02T00:05:09;99478.47;;;6.37;100.00
49627;BME280;35527;54.616;39.786;2022-09-02T00:08:12;99487.91;;;6.37;100.00
49627;BME280;35527;54.616;39.786;2022-09-02T00:11:19;99494.84;;;6.33;100.00
49627;BME280;35527;54.616;39.786;2022-09-02T00:14:30;99491.47;;;6.31;100.00
49627;BME280;35527;54.616;39.786;2022-09-02T00:17:36;99481.56;;;6.17;100.00
49627;BME280;35527;54.616;39.786;2022-09-02T00:20:44;99470.56;;;6.12;100.00
49627;BME280;35527;54.616;39.786;2022-09-02T00:23:49;99486.59;;;6.22;100.00
49627;BME280;35527;54.616;39.786;2022-09-02T00:26:53;99473.09;;;6.14;100.00
49627;BME280;35527;54.616;39.786;2022-09-02T00:29:57;99473.94;;;6.14;100.00
49627;BME280;35527;54.616;39.786;2022-09-02T00:33:01;99447.81;;;5.98;100.00
49627;BME280;35527;54.616;39.786;2022-09-02T00:36:10;99482.13;;;6.28;100.00
49627;BME280;35527;54.616;39.786;2022-09-02T00:39:14;99462.75;;;6.17;100.00
49627;BME280;35527;54.616;39.786;2022-09-02T00:42:22;99483.88;;;6.26;100.00
49627;BME280;35527;54.616;39.786;2022-09-02T00:45:25;99457.13;;;6.02;100.00
49627;BME280;35527;54.616;39.786;2022-09-02T00:48:28;99491.00;;;6.17;100.00
49627;BME280;35527;54.616;39.786;2022-09-02T00:51:45;99487.75;;;6.10;100.00
49627;BME280;35527;54.616;39.786;2022-09-02T00:54:59;99488.75;;;6.04;100.00
49627;BME280;35527;54.616;39.786;2022-09-02T00:58:09;99497.50;;;5.97;100.00
49627;BME280;35527;54.616;39.786;2022-09-02T01:01:25;99480.63;;;5.85;100.00
49627;BME280;35527;54.616;39.786;2022-09-02T01:04:32;99467.19;;;5.76;100.00
49627;BME280;35527;54.616;39.786;2022-09-02T01:07:40;99504.50;;;5.89;100.00
49627;BME280;35527;54.616;39.786;2022-09-02T01:10:45;99469.88;;;5.71;100.00
49627;BME280;35527;54.616;39.786;2022-09-02T01:13:52;99490.16;;;5.82;100.00
49627;BME280;35527;54.616;39.786;2022-09-02T01:16:59;99487.44;;;5.88;100.00
49627;BME280;35527;54.616;39.786;2022-09-02T01:20:13;99495.16;;;5.86;100.00
49627;BME280;35527;54.616;39.786;2022-09-02T01:23:17;99492.66;;;5.83;100.00
49627;BME280;35527;54.616;39.786;2022-09-02T01:26:23;99486.69;;;5.83;100.00
49627;BME280;35527;54.616;39.786;2022-09-02T01:29:27;99496.84;;;5.87;100.00
49627;BME280;35527;54.616;39.786;2022-09-02T01:32:31;99477.31;;;5.82;100.00
49627;BME280;35527;54.616;39.786;2022-09-02T01:35:36;99470.72;;;5.72;100.00
49627;BME280;35527;54.616;39.786;2022-09-02T01:38:40;99495.22;;;5.85;100.00
49627;BME280;35527;54.616;39.786;2022-09-02T01:41:43;99497.84;;;5.82;100.00
49627;BME280;35527;54.616;39.786;2022-09-02T01:44:47;99489.59;;;5.69;100.00
49627;BME280;35527;54.616;39.786;2022-09-02T01:47:50;99514.28;;;5.75;100.00
49627;BME280;35527;54.616;39.786;2022-09-02T01:51:00;99501.66;;;5.67;100.00
49627;BME280;35527;54.616;39.786;2022-09-02T01:54:04;99456.84;;;5.45;100.00
49627;BME280;35527;54.616;39.786;2022-09-02T01:57:09;99500.00;;;5.64;100.00
49627;BME280;35527;54.616;39.786;2022-09-02T02:00:13;99500.94;;;5.60;100.00
49627;BME280;35527;54.616;39.786;2022-09-02T02:03:26;99506.34;;;5.48;100.00
49627;BME280;35527;54.616;39.786;2022-09-02T02:06:32;99510.59;;;5.51;100.00
49627;BME280;35527;54.616;39.786;2022-09-02T02:09:37;99519.25;;;5.45;100.00
49627;BME280;35527;54.616;39.786;2022-09-02T02:12:41;99528.69;;;5.45;100.00
49627;BME280;35527;54.616;39.786;2022-09-02T02:15:47;99526.16;;;5.43;100.00
49627;BME280;35527;54.616;39.786;2022-09-02T02:18:50;99500.06;;;5.24;100.00
49627;BME280;35527;54.616;39.786;2022-09-02T02:21:55;99518.66;;;5.35;100.00
49627;BME280;35527;54.616;39.786;2022-09-02T02:24:58;99509.34;;;5.30;100.00
49627;BME280;35527;54.616;39.786;2022-09-02T02:28:06;99498.38;;;5.23;100.00
49627;BME280;35527;54.616;39.786;2022-09-02T02:31:10;99525.47;;;5.35;100.00
49627;BME280;35527;54.616;39.786;2022-09-02T02:34:13;99518.53;;;5.40;100.00
49627;BME280;35527;54.616;39.786;2022-09-02T02:37:19;99517.91;;;5.29;100.00
49627;BME280;35527;54.616;39.786;2022-09-02T02:40:26;99537.22;;;5.47;100.00
49627;BME280;35527;54.616;39.786;2022-09-02T02:43:29;99550.75;;;5.52;100.00
49627;BME280;35527;54.616;39.786;2022-09-02T02:46:33;99530.50;;;5.39;100.00
49627;BME280;35527;54.616;39.786;2022-09-02T02:49:42;99551.56;;;5.55;100.00
49627;BME280;35527;54.616;39.786;2022-09-02T02:52:51;99517.66;;;5.41;100.00
49627;BME280;35527;54.616;39.786;2022-09-02T02:55:59;99547.59;;;5.78;100.00
49627;BME280;35527;54.616;39.786;2022-09-02T02:59:03;99532.06;;;6.51;100.00
49627;BME280;35527;54.616;39.786;2022-09-02T03:02:08;99538.03;;;7.70;100.00
49627;BME280;35527;54.616;39.786;2022-09-02T03:05:14;99499.66;;;8.38;100.00
49627;BME280;35527;54.616;39.786;2022-09-02T03:08:18;99540.78;;;9.14;100.00
49627;BME280;35527;54.616;39.786;2022-09-02T03:11:26;99512.53;;;9.76;100.00
49627;BME280;35527;54.616;39.786;2022-09-02T03:14:31;99528.25;;;10.13;100.00
49627;BME280;35527;54.616;39.786;2022-09-02T03:17:37;99531.84;;;10.31;100.00
49627;BME280;35527;54.616;39.786;2022-09-02T03:20:40;99495.25;;;10.19;100.00
49627;BME280;35527;54.616;39.786;2022-09-02T03:23:49;99529.53;;;10.65;98.92
49627;BME280;35527;54.616;39.786;2022-09-02T03:26:52;99554.09;;;10.13;98.83
49627;BME280;35527;54.616;39.786;2022-09-02T03:29:59;99510.69;;;8.43;100.00
49627;BME280;35527;54.616;39.786;2022-09-02T03:33:03;99547.53;;;7.68;100.00
49627;BME280;35527;54.616;39.786;2022-09-02T03:36:21;99577.44;;;7.14;100.00
49627;BME280;35527;54.616;39.786;2022-09-02T03:39:25;99585.41;;;6.75;100.00
49627;BME280;35527;54.616;39.786;2022-09-02T03:42:30;99587.34;;;6.67;100.00
49627;BME280;35527;54.616;39.786;2022-09-02T03:45:32;99564.28;;;6.31;100.00
49627;BME280;35527;54.616;39.786;2022-09-02T03:48:41;99590.94;;;6.27;100.00
49627;BME280;35527;54.616;39.786;2022-09-02T03:51:46;99597.19;;;6.17;100.00
49627;BME280;35527;54.616;39.786;2022-09-02T03:54:55;99601.41;;;6.20;100.00
49627;BME280;35527;54.616;39.786;2022-09-02T03:57:59;99601.88;;;6.36;100.00
49627;BME280;35527;54.616;39.786;2022-09-02T04:01:14;99579.38;;;6.44;100.00
49627;BME280;35527;54.616;39.786;2022-09-02T04:04:18;99574.16;;;6.80;100.00
49627;BME280;35527;54.616;39.786;2022-09-02T04:07:25;99579.50;;;7.03;100.00
49627;BME280;35527;54.616;39.786;2022-09-02T04:10:30;99605.03;;;7.68;100.00
49627;BME280;35527;54.616;39.786;2022-09-02T04:13:35;99576.81;;;7.64;100.00
49627;BME280;35527;54.616;39.786;2022-09-02T04:16:38;99592.34;;;7.89;100.00
49627;BME280;35527;54.616;39.786;2022-09-02T04:19:43;99589.91;;;8.38;100.00
49627;BME280;35527;54.616;39.786;2022-09-02T04:22:46;99594.22;;;8.39;100.00
49627;BME280;35527;54.616;39.786;2022-09-02T04:25:51;99599.50;;;8.34;100.00
49627;BME280;35527;54.616;39.786;2022-09-02T04:28:55;99575.91;;;8.46;100.00
49627;BME280;35527;54.616;39.786;2022-09-02T04:32:05;99602.72;;;9.38;100.00
49627;BME280;35527;54.616;39.786;2022-09-02T04:35:08;99601.47;;;9.93;100.00
49627;BME280;35527;54.616;39.786;2022-09-02T04:38:12;99598.50;;;9.59;100.00
49627;BME280;35527;54.616;39.786;2022-09-02T04:41:20;99595.81;;;9.38;100.00
49627;BME280;35527;54.616;39.786;2022-09-02T04:44:27;99601.31;;;9.75;100.00
49627;BME280;35527;54.616;39.786;2022-09-02T04:47:31;99612.41;;;10.21;100.00
49627;BME280;35527;54.616;39.786;2022-09-02T04:50:40;99609.97;;;10.40;100.00
49627;BME280;35527;54.616;39.786;2022-09-02T04:53:44;99619.25;;;10.44;100.00
49627;BME280;35527;54.616;39.786;2022-09-02T04:56:50;99622.13;;;9.93;100.00
49627;BME280;35527;54.616;39.786;2022-09-02T04:59:54;99608.97;;;9.56;100.00
49627;BME280;35527;54.616;39.786;2022-09-02T05:02:57;99612.09;;;9.40;100.00
49627;BME280;35527;54.616;39.786;2022-09-02T05:06:07;99620.88;;;10.67;100.00
49627;BME280;35527;54.616;39.786;2022-09-02T05:09:16;99608.41;;;13.12;87.22
49627;BME280;35527;54.616;39.786;2022-09-02T05:12:26;99607.97;;;13.37;78.01
49627;BME280;35527;54.616;39.786;2022-09-02T05:15:38;99597.09;;;12.79;80.39
49627;BME280;35527;54.616;39.786;2022-09-02T05:18:44;99575.78;;;13.39;77.69
49627;BME280;35527;54.616;39.786;2022-09-02T05:22:18;99624.66;;;14.26;70.02
49627;BME280;35527;54.616;39.786;2022-09-02T05:25:21;99602.75;;;14.60;66.65
49627;BME280;35527;54.616;39.786;2022-09-02T05:28:30;99607.84;;;14.62;62.41
49627;BME280;35527;54.616;39.786;2022-09-02T05:31:33;99609.53;;;16.30;57.67
49627;BME280;35527;54.616;39.786;2022-09-02T05:34:41;99627.25;;;16.12;53.75
49627;BME280;35527;54.616;39.786;2022-09-02T05:37:45;99626.78;;;14.19;60.64
49627;BME280;35527;54.616;39.786;2022-09-02T05:40:49;99617.16;;;13.26;66.84
49627;BME280;35527;54.616;39.786;2022-09-02T05:43:57;99636.59;;;12.34;73.72
49627;BME280;35527;54.616;39.786;2022-09-02T05:47:02;99612.75;;;12.08;75.31
49627;BME280;35527;54.616;39.786;2022-09-02T05:50:06;99612.78;;;12.26;76.13
49627;BME280;35527;54.616;39.786;2022-09-02T05:53:10;99618.59;;;12.48;74.84
49627;BME280;35527;54.616;39.786;2022-09-02T05:56:17;99622.53;;;12.55;71.10
49627;BME280;35527;54.616;39.786;2022-09-02T05:59:22;99587.28;;;12.51;70.30
49627;BME280;35527;54.616;39.786;2022-09-02T06:02:30;99623.06;;;12.79;69.51
49627;BME280;35527;54.616;39.786;2022-09-02T06:05:35;99641.50;;;13.25;67.85
49627;BME280;35527;54.616;39.786;2022-09-02T06:08:46;99650.25;;;12.37;70.47
49627;BME280;35527;54.616;39.786;2022-09-02T06:11:51;99657.81;;;11.30;79.44
49627;BME280;35527;54.616;39.786;2022-09-02T06:15:01;99659.44;;;10.52;87.76
49627;BME280;35527;54.616;39.786;2022-09-02T06:18:05;99659.13;;;10.80;88.36
49627;BME280;35527;54.616;39.786;2022-09-02T06:21:11;99672.47;;;10.71;84.32
49627;BME280;35527;54.616;39.786;2022-09-02T06:24:23;99682.09;;;10.47;88.02
49627;BME280;35527;54.616;39.786;2022-09-02T06:27:26;99661.56;;;10.21;88.63
49627;BME280;35527;54.616;39.786;2022-09-02T06:30:30;99684.72;;;10.02;90.23
49627;BME280;35527;54.616;39.786;2022-09-02T06:33:34;99665.16;;;9.95;91.50
49627;BME280;35527;54.616;39.786;2022-09-02T06:36:43;99688.16;;;10.02;92.73
49627;BME280;35527;54.616;39.786;2022-09-02T06:39:50;99670.59;;;9.88;89.88
49627;BME280;35527;54.616;39.786;2022-09-02T06:42:57;99702.50;;;10.09;88.86
49627;BME280;35527;54.616;39.786;2022-09-02T06:46:06;99704.69;;;10.20;88.93
49627;BME280;35527;54.616;39.786;2022-09-02T06:49:13;99707.31;;;10.19;86.90
49627;BME280;35527;54.616;39.786;2022-09-02T06:52:20;99698.50;;;10.02;87.66
49627;BME280;35527;54.616;39.786;2022-09-02T06:55:26;99718.06;;;10.31;86.62
49627;BME280;35527;54.616;39.786;2022-09-02T06:58:28;99692.41;;;10.25;85.14
49627;BME280;35527;54.616;39.786;2022-09-02T07:01:36;99739.22;;;10.41;84.62
49627;BME280;35527;54.616;39.786;2022-09-02T07:04:40;99717.22;;;10.31;80.96
49627;BME280;35527;54.616;39.786;2022-09-02T07:08:03;99708.44;;;10.13;80.31
49627;BME280;35527;54.616;39.786;2022-09-02T07:11:14;99709.97;;;10.17;80.11
49627;BME280;35527;54.616;39.786;2022-09-02T07:14:19;99707.50;;;10.14;80.84
49627;BME280;35527;54.616;39.786;2022-09-02T07:17:28;99696.75;;;10.03;81.37
49627;BME280;35527;54.616;39.786;2022-09-02T07:20:36;99742.69;;;10.18;82.74
49627;BME280;35527;54.616;39.786;2022-09-02T07:23:40;99722.59;;;10.03;82.76
49627;BME280;35527;54.616;39.786;2022-09-02T07:26:44;99710.59;;;10.02;84.24
49627;BME280;35527;54.616;39.786;2022-09-02T07:29:49;99718.06;;;9.86;85.40
49627;BME280;35527;54.616;39.786;2022-09-02T07:32:53;99733.09;;;9.98;85.70
49627;BME280;35527;54.616;39.786;2022-09-02T07:35:57;99740.06;;;10.20;85.31
49627;BME280;35527;54.616;39.786;2022-09-02T07:39:07;99715.19;;;10.15;83.27
49627;BME280;35527;54.616;39.786;2022-09-02T07:42:14;99748.94;;;10.12;84.23
49627;BME280;35527;54.616;39.786;2022-09-02T07:45:18;99746.97;;;9.96;85.09
49627;BME280;35527;54.616;39.786;2022-09-02T07:48:23;99772.44;;;10.30;85.64
49627;BME280;35527;54.616;39.786;2022-09-02T07:51:29;99767.53;;;10.46;83.10
49627;BME280;35527;54.616;39.786;2022-09-02T07:54:36;99764.59;;;10.75;81.26
49627;BME280;35527;54.616;39.786;2022-09-02T07:57:39;99748.09;;;10.78;79.72
49627;BME280;35527;54.616;39.786;2022-09-02T08:00:43;99768.09;;;10.96;79.52
49627;BME280;35527;54.616;39.786;2022-09-02T08:03:50;99745.78;;;11.54;76.72
49627;BME280;35527;54.616;39.786;2022-09-02T08:06:58;99771.00;;;12.45;62.74
49627;BME280;35527;54.616;39.786;2022-09-02T08:10:06;99748.81;;;12.39;62.30
49627;BME280;35527;54.616;39.786;2022-09-02T08:13:12;99759.34;;;11.98;60.21
49627;BME280;35527;54.616;39.786;2022-09-02T08:16:20;99759.81;;;11.68;62.64
49627;BME280;35527;54.616;39.786;2022-09-02T08:19:24;99779.47;;;11.72;64.25
49627;BME280;35527;54.616;39.786;2022-09-02T08:22:33;99801.31;;;11.87;63.49
49627;BME280;35527;54.616;39.786;2022-09-02T08:25:38;99794.47;;;12.43;58.78
49627;BME280;35527;54.616;39.786;2022-09-02T08:28:46;99750.41;;;12.05;58.06
49627;BME280;35527;54.616;39.786;2022-09-02T08:31:49;99750.41;;;11.66;59.39
49627;BME280;35527;54.616;39.786;2022-09-02T08:34:53;99811.78;;;11.86;60.16
49627;BME280;35527;54.616;39.786;2022-09-02T08:37:57;99789.06;;;12.10;60.56
49627;BME280;35527;54.616;39.786;2022-09-02T08:41:01;99797.63;;;12.12;60.12
49627;BME280;35527;54.616;39.786;2022-09-02T08:44:04;99800.44;;;12.07;61.21
49627;BME280;35527;54.616;39.786;2022-09-02T08:47:13;99796.31;;;12.22;60.80
49627;BME280;35527;54.616;39.786;2022-09-02T08:50:20;99785.59;;;12.47;59.61
49627;BME280;35527;54.616;39.786;2022-09-02T08:53:30;99791.22;;;12.57;57.76
49627;BME280;35527;54.616;39.786;2022-09-02T08:56:33;99785.59;;;12.83;55.92
49627;BME280;35527;54.616;39.786;2022-09-02T08:59:41;99800.72;;;12.75;55.35
49627;BME280;35527;54.616;39.786;2022-09-02T09:13:22;99806.38;;;12.47;57.42
49627;BME280;35527;54.616;39.786;2022-09-02T09:19:52;99831.56;;;12.07;60.22
49627;BME280;35527;54.616;39.786;2022-09-02T09:23:13;99833.97;;;12.31;58.96
49627;BME280;35527;54.616;39.786;2022-09-02T09:26:27;99805.63;;;12.26;59.10
49627;BME280;35527;54.616;39.786;2022-09-02T09:29:32;99847.22;;;12.25;59.58
49627;BME280;35527;54.616;39.786;2022-09-02T09:32:39;99837.81;;;12.03;57.95
49627;BME280;35527;54.616;39.786;2022-09-02T09:35:51;99850.16;;;12.17;58.37
49627;BME280;35527;54.616;39.786;2022-09-02T09:38:56;99836.28;;;12.18;57.29
49627;BME280;35527;54.616;39.786;2022-09-02T09:42:11;99849.25;;;12.18;57.20
49627;BME280;35527;54.616;39.786;2022-09-02T09:48:25;99886.16;;;12.25;57.29
49627;BME280;35527;54.616;39.786;2022-09-02T09:51:36;99871.78;;;12.36;57.88
49627;BME280;35527;54.616;39.786;2022-09-02T09:54:41;99868.31;;;12.36;57.01
49627;BME280;35527;54.616;39.786;2022-09-02T09:57:48;99883.19;;;12.32;57.19
49627;BME280;35527;54.616;39.786;2022-09-02T10:00:52;99887.19;;;12.21;57.47
49627;BME280;35527;54.616;39.786;2022-09-02T10:04:38;99885.00;;;12.11;58.38
49627;BME280;35527;54.616;39.786;2022-09-02T10:07:54;99875.09;;;11.80;59.32
49627;BME280;35527;54.616;39.786;2022-09-02T10:11:05;99886.19;;;11.63;60.25
49627;BME280;35527;54.616;39.786;2022-09-02T10:14:10;99894.75;;;11.65;61.17
49627;BME280;35527;54.616;39.786;2022-09-02T10:27:44;99898.41;;;12.59;59.96
49627;BME280;35527;54.616;39.786;2022-09-02T10:41:38;99914.00;;;12.78;56.15
49627;BME280;35527;54.616;39.786;2022-09-02T11:01:47;99933.19;;;13.12;55.26
49627;BME280;35527;54.616;39.786;2022-09-02T11:05:02;99916.91;;;13.62;53.64
49627;BME280;35527;54.616;39.786;2022-09-02T11:08:11;99927.38;;;13.25;52.43
49627;BME280;35527;54.616;39.786;2022-09-02T11:11:31;99923.13;;;12.87;54.25
49627;BME280;35527;54.616;39.786;2022-09-02T11:14:51;99918.47;;;12.93;55.39
49627;BME280;35527;54.616;39.786;2022-09-02T11:18:06;99926.97;;;12.97;55.47
49627;BME280;35527;54.616;39.786;2022-09-02T11:24:43;99957.00;;;13.75;52.57
49627;BME280;35527;54.616;39.786;2022-09-02T11:27:58;99922.13;;;13.44;51.50
49627;BME280;35527;54.616;39.786;2022-09-02T11:34:50;99931.34;;;12.77;52.05
49627;BME280;35527;54.616;39.786;2022-09-02T11:38:02;99952.47;;;12.89;52.92
49627;BME280;35527;54.616;39.786;2022-09-02T11:41:18;99940.53;;;12.66;53.57
49627;BME280;35527;54.616;39.786;2022-09-02T11:48:30;99983.69;;;12.87;53.06
49627;BME280;35527;54.616;39.786;2022-09-02T11:55:26;99940.75;;;13.35;50.31
49627;BME280;35527;54.616;39.786;2022-09-02T11:58:38;99971.13;;;13.35;50.70
49627;BME280;35527;54.616;39.786;2022-09-02T12:01:53;99979.91;;;13.32;50.79
49627;BME280;35527;54.616;39.786;2022-09-02T12:12:02;99960.56;;;12.82;50.56
49627;BME280;35527;54.616;39.786;2022-09-02T12:19:04;99991.19;;;12.36;53.01
49627;BME280;35527;54.616;39.786;2022-09-02T12:28:29;99981.09;;;12.49;51.11
49627;BME280;35527;54.616;39.786;2022-09-02T12:31:42;99985.00;;;12.39;50.67
49627;BME280;35527;54.616;39.786;2022-09-02T12:34:51;100018.34;;;12.67;49.71
49627;BME280;35527;54.616;39.786;2022-09-02T12:38:38;99972.63;;;13.02;48.81
49627;BME280;35527;54.616;39.786;2022-09-02T12:45:14;99996.69;;;13.25;48.79
49627;BME280;35527;54.616;39.786;2022-09-02T12:48:34;99993.59;;;12.98;48.92
49627;BME280;35527;54.616;39.786;2022-09-02T12:54:53;99998.44;;;12.87;49.90
49627;BME280;35527;54.616;39.786;2022-09-02T12:58:20;100010.50;;;12.88;50.33
49627;BME280;35527;54.616;39.786;2022-09-02T13:14:57;100013.56;;;12.97;51.30
49627;BME280;35527;54.616;39.786;2022-09-02T13:25:06;100026.19;;;12.47;54.50
49627;BME280;35527;54.616;39.786;2022-09-02T13:32:00;100018.94;;;12.74;54.51
49627;BME280;35527;54.616;39.786;2022-09-02T13:35:16;99990.22;;;12.96;54.33
49627;BME280;35527;54.616;39.786;2022-09-02T13:38:23;100020.41;;;12.60;54.70
49627;BME280;35527;54.616;39.786;2022-09-02T13:41:31;100021.59;;;12.53;55.50
49627;BME280;35527;54.616;39.786;2022-09-02T13:44:35;100025.13;;;12.71;55.72
49627;BME280;35527;54.616;39.786;2022-09-02T13:47:45;100020.44;;;12.79;54.70
49627;BME280;35527;54.616;39.786;2022-09-02T13:50:50;100042.19;;;12.77;55.23
49627;BME280;35527;54.616;39.786;2022-09-02T13:53:57;100050.81;;;12.77;55.66
49627;BME280;35527;54.616;39.786;2022-09-02T13:57:26;100045.84;;;12.92;55.58
49627;BME280;35527;54.616;39.786;2022-09-02T14:00:35;100044.28;;;12.88;55.23
49627;BME280;35527;54.616;39.786;2022-09-02T14:03:54;100045.53;;;12.79;54.31
49627;BME280;35527;54.616;39.786;2022-09-02T14:06:57;100056.56;;;12.84;54.87
49627;BME280;35527;54.616;39.786;2022-09-02T14:10:04;100061.41;;;12.73;53.58
49627;BME280;35527;54.616;39.786;2022-09-02T14:13:11;100054.75;;;12.47;54.41
49627;BME280;35527;54.616;39.786;2022-09-02T14:16:26;100057.78;;;12.36;54.58
49627;BME280;35527;54.616;39.786;2022-09-02T14:19:29;100070.66;;;12.39;55.13
49627;BME280;35527;54.616;39.786;2022-09-02T14:22:34;100061.63;;;12.68;55.18
49627;BME280;35527;54.616;39.786;2022-09-02T14:25:49;100029.63;;;12.68;54.33
49627;BME280;35527;54.616;39.786;2022-09-02T14:28:53;100046.09;;;12.67;54.38
49627;BME280;35527;54.616;39.786;2022-09-02T14:32:10;100033.47;;;12.38;54.71
49627;BME280;35527;54.616;39.786;2022-09-02T14:38:24;100079.59;;;12.11;56.16
49627;BME280;35527;54.616;39.786;2022-09-02T14:41:29;100056.69;;;12.01;57.63
49627;BME280;35527;54.616;39.786;2022-09-02T14:44:34;100073.41;;;11.93;58.68
49627;BME280;35527;54.616;39.786;2022-09-02T14:47:51;100054.22;;;11.98;58.29
49627;BME280;35527;54.616;39.786;2022-09-02T14:50:59;100060.84;;;11.83;59.80
49627;BME280;35527;54.616;39.786;2022-09-02T14:54:05;100077.09;;;11.88;60.65
49627;BME280;35527;54.616;39.786;2022-09-02T15:00:35;100050.50;;;11.81;61.29
49627;BME280;35527;54.616;39.786;2022-09-02T15:03:41;100067.91;;;11.79;61.76
49627;BME280;35527;54.616;39.786;2022-09-02T15:06:46;100052.22;;;11.60;62.46
49627;BME280;35527;54.616;39.786;2022-09-02T15:09:50;100054.81;;;11.60;62.20
49627;BME280;35527;54.616;39.786;2022-09-02T15:12:55;100084.13;;;11.62;63.57
49627;BME280;35527;54.616;39.786;2022-09-02T15:16:00;100087.59;;;11.61;64.30
49627;BME280;35527;54.616;39.786;2022-09-02T15:19:03;100053.31;;;11.55;64.93
49627;BME280;35527;54.616;39.786;2022-09-02T15:22:09;100070.34;;;11.38;65.02
49627;BME280;35527;54.616;39.786;2022-09-02T15:25:38;100051.56;;;11.33;66.79
49627;BME280;35527;54.616;39.786;2022-09-02T15:28:42;100093.66;;;11.38;67.13
49627;BME280;35527;54.616;39.786;2022-09-02T15:31:52;100100.84;;;11.32;68.32
49627;BME280;35527;54.616;39.786;2022-09-02T15:34:55;100096.56;;;11.31;67.70
49627;BME280;35527;54.616;39.786;2022-09-02T15:38:01;100100.28;;;11.23;69.52
49627;BME280;35527;54.616;39.786;2022-09-02T15:41:21;100090.38;;;11.11;69.87
49627;BME280;35527;54.616;39.786;2022-09-02T15:44:25;100100.84;;;11.08;69.91
49627;BME280;35527;54.616;39.786;2022-09-02T15:47:28;100109.47;;;11.09;70.43
49627;BME280;35527;54.616;39.786;2022-09-02T15:50:36;100086.16;;;11.09;70.36
49627;BME280;35527;54.616;39.786;2022-09-02T15:53:39;100105.94;;;11.10;69.93
49627;BME280;35527;54.616;39.786;2022-09-02T15:56:44;100117.06;;;11.13;69.95
49627;BME280;35527;54.616;39.786;2022-09-02T15:59:49;100121.84;;;11.00;72.16
49627;BME280;35527;54.616;39.786;2022-09-02T16:02:56;100096.91;;;10.73;73.23
49627;BME280;35527;54.616;39.786;2022-09-02T16:06:04;100122.72;;;10.76;74.59
49627;BME280;35527;54.616;39.786;2022-09-02T16:09:11;100123.13;;;10.64;75.48
49627;BME280;35527;54.616;39.786;2022-09-02T16:12:15;100103.28;;;10.39;76.61
49627;BME280;35527;54.616;39.786;2022-09-02T16:15:27;100123.97;;;10.39;77.50
49627;BME280;35527;54.616;39.786;2022-09-02T16:18:32;100131.84;;;10.36;77.95
49627;BME280;35527;54.616;39.786;2022-09-02T16:21:35;100126.06;;;10.28;78.32
49627;BME280;35527;54.616;39.786;2022-09-02T16:24:40;100139.88;;;10.27;78.86
49627;BME280;35527;54.616;39.786;2022-09-02T16:27:44;100135.16;;;10.11;79.56
49627;BME280;35527;54.616;39.786;2022-09-02T16:30:56;100130.34;;;10.01;80.54
49627;BME280;35527;54.616;39.786;2022-09-02T16:33:59;100148.41;;;10.02;81.97
49627;BME280;35527;54.616;39.786;2022-09-02T16:37:02;100149.53;;;9.93;82.89
49627;BME280;35527;54.616;39.786;2022-09-02T16:40:10;100157.41;;;9.89;84.20
49627;BME280;35527;54.616;39.786;2022-09-02T16:43:13;100151.59;;;9.82;84.75
49627;BME280;35527;54.616;39.786;2022-09-02T16:46:15;100158.66;;;9.76;85.47
49627;BME280;35527;54.616;39.786;2022-09-02T16:49:20;100168.22;;;9.74;85.65
49627;BME280;35527;54.616;39.786;2022-09-02T16:52:25;100144.44;;;9.62;86.76
49627;BME280;35527;54.616;39.786;2022-09-02T16:55:31;100146.59;;;9.48;86.94
49627;BME280;35527;54.616;39.786;2022-09-02T16:58:34;100158.69;;;9.46;87.57
49627;BME280;35527;54.616;39.786;2022-09-02T17:01:37;100178.25;;;9.55;88.17
49627;BME280;35527;54.616;39.786;2022-09-02T17:04:41;100166.50;;;9.44;88.35
49627;BME280;35527;54.616;39.786;2022-09-02T17:07:43;100175.00;;;9.48;89.24
49627;BME280;35527;54.616;39.786;2022-09-02T17:10:50;100170.88;;;9.42;88.15
49627;BME280;35527;54.616;39.786;2022-09-02T17:13:58;100172.50;;;9.45;88.75
49627;BME280;35527;54.616;39.786;2022-09-02T17:17:08;100153.16;;;9.29;88.79
49627;BME280;35527;54.616;39.786;2022-09-02T17:20:17;100178.56;;;9.44;88.74
49627;BME280;35527;54.616;39.786;2022-09-02T17:23:21;100154.81;;;9.31;89.36
49627;BME280;35527;54.616;39.786;2022-09-02T17:26:27;100177.06;;;9.35;89.57
49627;BME280;35527;54.616;39.786;2022-09-02T17:29:32;100151.78;;;9.17;89.73
49627;BME280;35527;54.616;39.786;2022-09-02T17:32:51;100153.63;;;9.12;90.28
49627;BME280;35527;54.616;39.786;2022-09-02T17:35:59;100154.47;;;9.12;90.74
49627;BME280;35527;54.616;39.786;2022-09-02T17:39:12;100168.19;;;9.14;90.40
49627;BME280;35527;54.616;39.786;2022-09-02T17:42:19;100172.47;;;9.15;90.61
49627;BME280;35527;54.616;39.786;2022-09-02T17:45:22;100169.03;;;9.15;90.89
49627;BME280;35527;54.616;39.786;2022-09-02T17:48:27;100170.91;;;9.10;91.12
49627;BME280;35527;54.616;39.786;2022-09-02T17:51:40;100152.13;;;9.05;91.34
49627;BME280;35527;54.616;39.786;2022-09-02T17:54:48;100156.41;;;9.04;91.38
49627;BME280;35527;54.616;39.786;2022-09-02T17:58:12;100173.72;;;9.02;91.97
49627;BME280;35527;54.616;39.786;2022-09-02T18:01:23;100154.31;;;8.87;92.35
49627;BME280;35527;54.616;39.786;2022-09-02T18:07:56;100176.28;;;9.02;92.83
49627;BME280;35527;54.616;39.786;2022-09-02T18:11:04;100166.16;;;8.94;92.53
49627;BME280;35527;54.616;39.786;2022-09-02T18:14:27;100191.00;;;8.98;92.66
49627;BME280;35527;54.616;39.786;2022-09-02T18:17:35;100197.09;;;8.96;93.09
49627;BME280;35527;54.616;39.786;2022-09-02T18:20:42;100192.06;;;8.91;93.64
49627;BME280;35527;54.616;39.786;2022-09-02T18:27:09;100192.22;;;8.85;95.06
49627;BME280;35527;54.616;39.786;2022-09-02T18:30:21;100172.94;;;8.66;95.23